sensor_id;sensor_type;location;lat;lon;timestamp;temperature;humidity
34768;DHT22;21755;43.608;1.236;2022-08-19T00:00:27;18.40;99.90
34768;DHT22;21755;43.608;1.236;2022-08-19T00:02:53;18.30;99.90
34768;DHT22;21755;43.608;1.236;2022-08-19T00:05:21;18.30;99.90
34768;DHT22;21755;43.608;1.236;2022-08-19T00:07:48;18.40;99.90
34768;DHT22;21755;43.608;1.236;2022-08-19T00:10:15;18.40;99.90
34768;DHT22;21755;43.608;1.236;2022-08-19T00:12:41;18.20;99.90
34768;DHT22;21755;43.608;1.236;2022-08-19T00:15:11;18.10;99.90
34768;DHT22;21755;43.608;1.236;2022-08-19T00:17:43;18.10;99.90
34768;DHT22;21755;43.608;1.236;2022-08-19T00:20:12;18.20;99.90
34768;DHT22;21755;43.608;1.236;2022-08-19T00:22:38;18.20;99.90
34768;DHT22;21755;43.608;1.236;2022-08-19T00:25:07;18.50;99.90
34768;DHT22;21755;43.608;1.236;2022-08-19T00:27:33;18.30;99.90
34768;DHT22;21755;43.608;1.236;2022-08-19T00:29:59;18.50;99.90
34768;DHT22;21755;43.608;1.236;2022-08-19T00:32:27;18.60;99.90
34768;DHT22;21755;43.608;1.236;2022-08-19T00:34:53;18.40;99.90
34768;DHT22;21755;43.608;1.236;2022-08-19T00:37:21;18.20;99.90
34768;DHT22;21755;43.608;1.236;2022-08-19T00:39:49;18.30;99.90
34768;DHT22;21755;43.608;1.236;2022-08-19T00:42:17;18.30;99.90
34768;DHT22;21755;43.608;1.236;2022-08-19T00:44:43;18.20;99.90
34768;DHT22;21755;43.608;1.236;2022-08-19T00:47:09;18.30;99.90
34768;DHT22;21755;43.608;1.236;2022-08-19T00:49:55;18.40;99.90
34768;DHT22;21755;43.608;1.236;2022-08-19T00:52:27;18.30;99.90
34768;DHT22;21755;43.608;1.236;2022-08-19T00:54:55;18.20;99.90
34768;DHT22;21755;43.608;1.236;2022-08-19T00:57:32;18.10;99.90
34768;DHT22;21755;43.608;1.236;2022-08-19T01:00:00;18.20;99.90
34768;DHT22;21755;43.608;1.236;2022-08-19T01:02:28;18.10;99.90
34768;DHT22;21755;43.608;1.236;2022-08-19T01:04:54;18.20;99.90
34768;DHT22;21755;43.608;1.236;2022-08-19T01:07:21;18.30;99.90
34768;DHT22;21755;43.608;1.236;2022-08-19T01:09:47;18.20;99.90
34768;DHT22;21755;43.608;1.236;2022-08-19T01:12:14;18.30;99.90
34768;DHT22;21755;43.608;1.236;2022-08-19T01:14:40;18.60;99.90
34768;DHT22;21755;43.608;1.236;2022-08-19T01:17:09;18.40;99.90
34768;DHT22;21755;43.608;1.236;2022-08-19T01:19:41;18.40;99.90
34768;DHT22;21755;43.608;1.236;2022-08-19T01:22:26;18.40;99.90
34768;DHT22;21755;43.608;1.236;2022-08-19T01:24:53;18.20;99.90
34768;DHT22;21755;43.608;1.236;2022-08-19T01:27:19;18.00;99.90
34768;DHT22;21755;43.608;1.236;2022-08-19T01:29:45;18.20;99.90
34768;DHT22;21755;43.608;1.236;2022-08-19T01:32:13;18.10;99.90
34768;DHT22;21755;43.608;1.236;2022-08-19T01:34:40;18.10;99.90
34768;DHT22;21755;43.608;1.236;2022-08-19T01:37:11;18.20;99.90
34768;DHT22;21755;43.608;1.236;2022-08-19T01:39:39;18.10;99.90
34768;DHT22;21755;43.608;1.236;2022-08-19T01:42:07;18.00;99.90
34768;DHT22;21755;43.608;1.236;2022-08-19T01:44:34;18.10;99.90
34768;DHT22;21755;43.608;1.236;2022-08-19T01:47:02;17.90;99.90
34768;DHT22;21755;43.608;1.236;2022-08-19T01:49:29;17.80;99.90
34768;DHT22;21755;43.608;1.236;2022-08-19T01:51:56;18.10;99.90
34768;DHT22;21755;43.608;1.236;2022-08-19T01:54:23;18.10;99.90
34768;DHT22;21755;43.608;1.236;2022-08-19T01:56:51;18.10;99.90
34768;DHT22;21755;43.608;1.236;2022-08-19T01:59:20;18.20;99.90
34768;DHT22;21755;43.608;1.236;2022-08-19T02:01:48;18.20;99.90
34768;DHT22;21755;43.608;1.236;2022-08-19T02:04:14;18.30;99.90
34768;DHT22;21755;43.608;1.236;2022-08-19T02:06:41;18.30;99.90
34768;DHT22;21755;43.608;1.236;2022-08-19T02:09:07;18.10;99.90
34768;DHT22;21755;43.608;1.236;2022-08-19T02:11:35;18.00;99.90
34768;DHT22;21755;43.608;1.236;2022-08-19T02:14:05;18.00;99.90
34768;DHT22;21755;43.608;1.236;2022-08-19T02:16:32;18.10;99.90
34768;DHT22;21755;43.608;1.236;2022-08-19T02:18:58;17.90;99.90
34768;DHT22;21755;43.608;1.236;2022-08-19T02:21:29;17.80;99.90
34768;DHT22;21755;43.608;1.236;2022-08-19T02:23:55;17.80;99.90
34768;DHT22;21755;43.608;1.236;2022-08-19T02:26:22;17.80;99.90
34768;DHT22;21755;43.608;1.236;2022-08-19T02:28:49;17.70;99.90
34768;DHT22;21755;43.608;1.236;2022-08-19T02:31:19;17.80;99.90
34768;DHT22;21755;43.608;1.236;2022-08-19T02:33:45;17.80;99.90
34768;DHT22;21755;43.608;1.236;2022-08-19T02:36:13;17.80;99.90
34768;DHT22;21755;43.608;1.236;2022-08-19T02:38:40;17.90;99.90
34768;DHT22;21755;43.608;1.236;2022-08-19T02:41:13;17.80;99.90
34768;DHT22;21755;43.608;1.236;2022-08-19T02:43:39;18.00;99.90
34768;DHT22;21755;43.608;1.236;2022-08-19T02:46:27;17.90;99.90
34768;DHT22;21755;43.608;1.236;2022-08-19T02:48:57;18.00;99.90
34768;DHT22;21755;43.608;1.236;2022-08-19T02:51:33;17.90;99.90
34768;DHT22;21755;43.608;1.236;2022-08-19T02:54:00;17.90;99.90
34768;DHT22;21755;43.608;1.236;2022-08-19T02:56:26;17.90;99.90
34768;DHT22;21755;43.608;1.236;2022-08-19T02:58:54;17.90;99.90
34768;DHT22;21755;43.608;1.236;2022-08-19T03:03:52;18.10;99.90
34768;DHT22;21755;43.608;1.236;2022-08-19T03:06:19;18.30;99.90
34768;DHT22;21755;43.608;1.236;2022-08-19T03:08:46;18.10;99.90
34768;DHT22;21755;43.608;1.236;2022-08-19T03:11:19;18.10;99.90
34768;DHT22;21755;43.608;1.236;2022-08-19T03:13:45;18.00;99.90
34768;DHT22;21755;43.608;1.236;2022-08-19T03:16:12;18.00;99.90
34768;DHT22;21755;43.608;1.236;2022-08-19T03:18:38;18.10;99.90
34768;DHT22;21755;43.608;1.236;2022-08-19T03:21:05;18.10;99.90
34768;DHT22;21755;43.608;1.236;2022-08-19T03:23:31;17.90;99.90
34768;DHT22;21755;43.608;1.236;2022-08-19T03:25:58;18.20;99.90
34768;DHT22;21755;43.608;1.236;2022-08-19T03:28:24;18.30;99.90
34768;DHT22;21755;43.608;1.236;2022-08-19T03:31:04;18.40;99.90
34768;DHT22;21755;43.608;1.236;2022-08-19T03:33:32;18.20;99.90
34768;DHT22;21755;43.608;1.236;2022-08-19T03:36:12;18.00;99.90
34768;DHT22;21755;43.608;1.236;2022-08-19T03:38:44;17.90;99.90
34768;DHT22;21755;43.608;1.236;2022-08-19T03:41:13;17.90;99.90
34768;DHT22;21755;43.608;1.236;2022-08-19T03:43:41;18.00;99.90
34768;DHT22;21755;43.608;1.236;2022-08-19T03:46:13;18.10;99.90
34768;DHT22;21755;43.608;1.236;2022-08-19T03:48:40;17.90;99.90
34768;DHT22;21755;43.608;1.236;2022-08-19T03:51:08;18.00;99.90
34768;DHT22;21755;43.608;1.236;2022-08-19T03:53:40;17.90;99.90
34768;DHT22;21755;43.608;1.236;2022-08-19T03:56:09;17.90;99.90
34768;DHT22;21755;43.608;1.236;2022-08-19T03:58:35;18.00;99.90
34768;DHT22;21755;43.608;1.236;2022-08-19T04:01:07;18.00;99.90
34768;DHT22;21755;43.608;1.236;2022-08-19T04:03:34;17.90;99.90
34768;DHT22;21755;43.608;1.236;2022-08-19T04:06:15;17.70;99.90
34768;DHT22;21755;43.608;1.236;2022-08-19T04:08:42;17.90;99.90
34768;DHT22;21755;43.608;1.236;2022-08-19T04:11:10;18.10;99.90
34768;DHT22;21755;43.608;1.236;2022-08-19T04:13:37;18.40;99.90
34768;DHT22;21755;43.608;1.236;2022-08-19T04:16:05;18.40;99.90
34768;DHT22;21755;43.608;1.236;2022-08-19T04:18:32;18.20;99.90
34768;DHT22;21755;43.608;1.236;2022-08-19T04:20:59;18.20;99.90
34768;DHT22;21755;43.608;1.236;2022-08-19T04:23:26;18.30;99.90
34768;DHT22;21755;43.608;1.236;2022-08-19T04:25:54;18.10;99.90
34768;DHT22;21755;43.608;1.236;2022-08-19T04:28:20;17.90;99.90
34768;DHT22;21755;43.608;1.236;2022-08-19T04:30:51;17.90;99.90
34768;DHT22;21755;43.608;1.236;2022-08-19T04:33:20;18.20;99.90
34768;DHT22;21755;43.608;1.236;2022-08-19T04:35:48;18.00;99.90
34768;DHT22;21755;43.608;1.236;2022-08-19T04:38:16;17.90;99.90
34768;DHT22;21755;43.608;1.236;2022-08-19T04:40:44;17.90;99.90
34768;DHT22;21755;43.608;1.236;2022-08-19T04:43:29;17.90;99.90
34768;DHT22;21755;43.608;1.236;2022-08-19T04:45:56;18.10;99.90
34768;DHT22;21755;43.608;1.236;2022-08-19T04:48:23;17.90;99.90
34768;DHT22;21755;43.608;1.236;2022-08-19T04:50:53;17.80;99.90
34768;DHT22;21755;43.608;1.236;2022-08-19T04:53:27;17.90;99.90
34768;DHT22;21755;43.608;1.236;2022-08-19T04:55:55;18.10;99.90
34768;DHT22;21755;43.608;1.236;2022-08-19T04:58:23;17.90;99.90
34768;DHT22;21755;43.608;1.236;2022-08-19T05:00:49;18.00;99.90
34768;DHT22;21755;43.608;1.236;2022-08-19T05:03:15;18.10;99.90
34768;DHT22;21755;43.608;1.236;2022-08-19T05:05:43;18.40;99.90
34768;DHT22;21755;43.608;1.236;2022-08-19T05:08:11;18.10;99.90
34768;DHT22;21755;43.608;1.236;2022-08-19T05:10:38;18.10;99.90
34768;DHT22;21755;43.608;1.236;2022-08-19T05:13:05;18.20;99.90
34768;DHT22;21755;43.608;1.236;2022-08-19T05:15:31;18.50;99.90
34768;DHT22;21755;43.608;1.236;2022-08-19T05:17:57;18.60;99.90
34768;DHT22;21755;43.608;1.236;2022-08-19T05:20:42;18.30;99.90
34768;DHT22;21755;43.608;1.236;2022-08-19T05:23:26;18.30;99.90
34768;DHT22;21755;43.608;1.236;2022-08-19T05:25:52;18.20;99.90
34768;DHT22;21755;43.608;1.236;2022-08-19T05:28:19;18.40;99.90
34768;DHT22;21755;43.608;1.236;2022-08-19T05:30:46;18.90;99.90
34768;DHT22;21755;43.608;1.236;2022-08-19T05:33:13;18.70;99.90
34768;DHT22;21755;43.608;1.236;2022-08-19T05:35:39;18.60;99.90
34768;DHT22;21755;43.608;1.236;2022-08-19T05:38:07;18.90;99.90
34768;DHT22;21755;43.608;1.236;2022-08-19T05:40:38;18.60;99.90
34768;DHT22;21755;43.608;1.236;2022-08-19T05:43:06;18.80;99.90
34768;DHT22;21755;43.608;1.236;2022-08-19T05:45:32;18.80;99.90
34768;DHT22;21755;43.608;1.236;2022-08-19T05:48:03;18.80;99.90
34768;DHT22;21755;43.608;1.236;2022-08-19T05:50:29;18.70;99.90
34768;DHT22;21755;43.608;1.236;2022-08-19T05:52:55;19.00;99.90
34768;DHT22;21755;43.608;1.236;2022-08-19T05:55:21;18.90;99.90
34768;DHT22;21755;43.608;1.236;2022-08-19T05:57:49;18.90;99.90
34768;DHT22;21755;43.608;1.236;2022-08-19T06:00:15;18.60;99.90
34768;DHT22;21755;43.608;1.236;2022-08-19T06:02:41;18.80;99.90
34768;DHT22;21755;43.608;1.236;2022-08-19T06:05:08;18.50;99.90
34768;DHT22;21755;43.608;1.236;2022-08-19T06:07:35;18.20;99.90
34768;DHT22;21755;43.608;1.236;2022-08-19T06:10:08;18.70;99.90
34768;DHT22;21755;43.608;1.236;2022-08-19T06:12:36;18.80;99.90
34768;DHT22;21755;43.608;1.236;2022-08-19T06:15:09;18.80;99.90
34768;DHT22;21755;43.608;1.236;2022-08-19T06:17:36;18.80;99.90
34768;DHT22;21755;43.608;1.236;2022-08-19T06:20:08;18.60;99.90
34768;DHT22;21755;43.608;1.236;2022-08-19T06:22:43;18.60;99.90
34768;DHT22;21755;43.608;1.236;2022-08-19T06:25:10;18.50;99.90
34768;DHT22;21755;43.608;1.236;2022-08-19T06:27:36;18.70;99.90
34768;DHT22;21755;43.608;1.236;2022-08-19T06:30:04;18.70;99.90
34768;DHT22;21755;43.608;1.236;2022-08-19T06:32:30;18.60;99.90
34768;DHT22;21755;43.608;1.236;2022-08-19T06:34:56;18.90;99.90
34768;DHT22;21755;43.608;1.236;2022-08-19T06:37:22;19.00;99.90
34768;DHT22;21755;43.608;1.236;2022-08-19T06:39:49;18.80;99.90
34768;DHT22;21755;43.608;1.236;2022-08-19T06:42:15;18.90;99.90
34768;DHT22;21755;43.608;1.236;2022-08-19T06:44:45;18.90;99.90
34768;DHT22;21755;43.608;1.236;2022-08-19T06:47:14;18.90;99.90
34768;DHT22;21755;43.608;1.236;2022-08-19T06:49:41;18.90;99.90
34768;DHT22;21755;43.608;1.236;2022-08-19T06:52:08;19.50;99.90
34768;DHT22;21755;43.608;1.236;2022-08-19T06:54:38;19.60;99.90
34768;DHT22;21755;43.608;1.236;2022-08-19T06:57:05;19.50;99.90
34768;DHT22;21755;43.608;1.236;2022-08-19T06:59:33;19.40;99.90
34768;DHT22;21755;43.608;1.236;2022-08-19T07:02:02;18.90;99.90
34768;DHT22;21755;43.608;1.236;2022-08-19T07:04:31;18.80;99.90
34768;DHT22;21755;43.608;1.236;2022-08-19T07:07:17;18.60;99.90
34768;DHT22;21755;43.608;1.236;2022-08-19T07:09:49;18.50;99.90
34768;DHT22;21755;43.608;1.236;2022-08-19T07:12:15;18.50;99.90
34768;DHT22;21755;43.608;1.236;2022-08-19T07:14:42;18.60;99.90
34768;DHT22;21755;43.608;1.236;2022-08-19T07:17:10;18.60;99.90
34768;DHT22;21755;43.608;1.236;2022-08-19T07:19:38;18.70;99.90
34768;DHT22;21755;43.608;1.236;2022-08-19T07:22:07;18.80;99.90
34768;DHT22;21755;43.608;1.236;2022-08-19T07:24:37;18.80;99.90
34768;DHT22;21755;43.608;1.236;2022-08-19T07:27:07;18.80;99.90
34768;DHT22;21755;43.608;1.236;2022-08-19T07:29:35;18.90;99.90
34768;DHT22;21755;43.608;1.236;2022-08-19T07:32:03;18.80;99.90
34768;DHT22;21755;43.608;1.236;2022-08-19T07:34:40;18.80;99.90
34768;DHT22;21755;43.608;1.236;2022-08-19T07:37:13;18.90;99.90
34768;DHT22;21755;43.608;1.236;2022-08-19T07:39:42;19.10;99.90
34768;DHT22;21755;43.608;1.236;2022-08-19T07:42:10;19.40;99.90
34768;DHT22;21755;43.608;1.236;2022-08-19T07:44:37;19.70;99.90
34768;DHT22;21755;43.608;1.236;2022-08-19T07:47:04;19.70;99.90
34768;DHT22;21755;43.608;1.236;2022-08-19T07:49:30;19.70;99.90
34768;DHT22;21755;43.608;1.236;2022-08-19T07:52:10;19.70;99.90
34768;DHT22;21755;43.608;1.236;2022-08-19T07:54:42;19.50;99.90
34768;DHT22;21755;43.608;1.236;2022-08-19T07:57:08;19.30;99.90
34768;DHT22;21755;43.608;1.236;2022-08-19T07:59:35;19.20;99.90
34768;DHT22;21755;43.608;1.236;2022-08-19T08:02:02;19.20;99.90
34768;DHT22;21755;43.608;1.236;2022-08-19T08:04:29;19.40;99.90
34768;DHT22;21755;43.608;1.236;2022-08-19T08:07:14;19.40;99.90
34768;DHT22;21755;43.608;1.236;2022-08-19T08:10:00;19.60;99.90
34768;DHT22;21755;43.608;1.236;2022-08-19T08:12:31;19.50;99.90
34768;DHT22;21755;43.608;1.236;2022-08-19T08:15:04;19.60;99.90
34768;DHT22;21755;43.608;1.236;2022-08-19T08:17:31;20.00;99.90
34768;DHT22;21755;43.608;1.236;2022-08-19T08:19:57;20.20;99.90
34768;DHT22;21755;43.608;1.236;2022-08-19T08:22:24;20.30;99.90
34768;DHT22;21755;43.608;1.236;2022-08-19T08:25:13;20.20;99.90
34768;DHT22;21755;43.608;1.236;2022-08-19T08:27:41;20.00;99.90
34768;DHT22;21755;43.608;1.236;2022-08-19T08:30:09;19.90;99.90
34768;DHT22;21755;43.608;1.236;2022-08-19T08:32:37;20.10;99.90
34768;DHT22;21755;43.608;1.236;2022-08-19T08:35:06;19.90;99.90
34768;DHT22;21755;43.608;1.236;2022-08-19T08:37:32;20.00;99.90
34768;DHT22;21755;43.608;1.236;2022-08-19T08:39:58;19.90;99.90
34768;DHT22;21755;43.608;1.236;2022-08-19T08:42:31;19.80;99.90
34768;DHT22;21755;43.608;1.236;2022-08-19T08:45:00;19.90;99.90
34768;DHT22;21755;43.608;1.236;2022-08-19T08:47:34;19.90;99.90
34768;DHT22;21755;43.608;1.236;2022-08-19T08:50:23;20.00;99.90
34768;DHT22;21755;43.608;1.236;2022-08-19T08:52:53;20.00;99.90
34768;DHT22;21755;43.608;1.236;2022-08-19T08:55:24;20.00;99.90
34768;DHT22;21755;43.608;1.236;2022-08-19T08:58:24;19.90;99.90
34768;DHT22;21755;43.608;1.236;2022-08-19T09:00:52;19.90;99.90
34768;DHT22;21755;43.608;1.236;2022-08-19T09:03:26;19.80;99.90
34768;DHT22;21755;43.608;1.236;2022-08-19T09:06:03;19.80;99.90
34768;DHT22;21755;43.608;1.236;2022-08-19T09:14:32;20.00;99.90
34768;DHT22;21755;43.608;1.236;2022-08-19T09:16:59;20.00;99.90
34768;DHT22;21755;43.608;1.236;2022-08-19T09:19:28;20.20;99.90
34768;DHT22;21755;43.608;1.236;2022-08-19T09:21:53;20.20;99.90
34768;DHT22;21755;43.608;1.236;2022-08-19T09:24:19;20.20;99.90
34768;DHT22;21755;43.608;1.236;2022-08-19T09:26:45;20.40;99.90
34768;DHT22;21755;43.608;1.236;2022-08-19T09:29:12;20.30;99.90
34768;DHT22;21755;43.608;1.236;2022-08-19T09:31:38;20.30;99.90
34768;DHT22;21755;43.608;1.236;2022-08-19T09:34:04;20.30;99.90
34768;DHT22;21755;43.608;1.236;2022-08-19T09:36:31;20.30;99.90
34768;DHT22;21755;43.608;1.236;2022-08-19T09:38:59;20.30;99.90
34768;DHT22;21755;43.608;1.236;2022-08-19T09:41:28;20.40;99.90
34768;DHT22;21755;43.608;1.236;2022-08-19T09:43:56;20.40;99.90
34768;DHT22;21755;43.608;1.236;2022-08-19T09:46:25;20.60;99.90
34768;DHT22;21755;43.608;1.236;2022-08-19T09:48:52;20.70;99.90
34768;DHT22;21755;43.608;1.236;2022-08-19T09:51:23;20.70;99.90
34768;DHT22;21755;43.608;1.236;2022-08-19T09:53:51;20.80;99.90
34768;DHT22;21755;43.608;1.236;2022-08-19T09:56:20;20.70;99.90
34768;DHT22;21755;43.608;1.236;2022-08-19T09:58:47;20.90;99.90
34768;DHT22;21755;43.608;1.236;2022-08-19T10:01:24;20.90;99.90
34768;DHT22;21755;43.608;1.236;2022-08-19T10:03:53;20.80;99.90
34768;DHT22;21755;43.608;1.236;2022-08-19T10:06:25;20.80;99.90
34768;DHT22;21755;43.608;1.236;2022-08-19T10:08:51;20.90;99.90
34768;DHT22;21755;43.608;1.236;2022-08-19T10:11:19;21.00;99.90
34768;DHT22;21755;43.608;1.236;2022-08-19T10:13:46;21.00;99.90
34768;DHT22;21755;43.608;1.236;2022-08-19T10:16:15;21.30;99.90
34768;DHT22;21755;43.608;1.236;2022-08-19T10:18:42;21.20;99.90
34768;DHT22;21755;43.608;1.236;2022-08-19T10:21:24;21.30;99.90
34768;DHT22;21755;43.608;1.236;2022-08-19T10:23:53;21.40;99.90
34768;DHT22;21755;43.608;1.236;2022-08-19T10:26:23;21.50;99.90
34768;DHT22;21755;43.608;1.236;2022-08-19T10:28:50;21.90;99.90
34768;DHT22;21755;43.608;1.236;2022-08-19T10:31:19;22.20;99.90
34768;DHT22;21755;43.608;1.236;2022-08-19T10:33:47;22.20;99.90
34768;DHT22;21755;43.608;1.236;2022-08-19T10:36:20;22.10;99.90
34768;DHT22;21755;43.608;1.236;2022-08-19T10:38:51;22.10;99.90
34768;DHT22;21755;43.608;1.236;2022-08-19T10:41:21;22.20;99.90
34768;DHT22;21755;43.608;1.236;2022-08-19T10:43:55;22.50;99.90
34768;DHT22;21755;43.608;1.236;2022-08-19T10:46:25;22.70;99.90
34768;DHT22;21755;43.608;1.236;2022-08-19T10:48:52;22.90;99.90
34768;DHT22;21755;43.608;1.236;2022-08-19T10:51:19;23.20;99.90
34768;DHT22;21755;43.608;1.236;2022-08-19T10:54:05;23.30;99.90
34768;DHT22;21755;43.608;1.236;2022-08-19T10:56:32;23.50;99.90
34768;DHT22;21755;43.608;1.236;2022-08-19T10:59:28;23.70;99.90
34768;DHT22;21755;43.608;1.236;2022-08-19T11:02:07;23.80;99.90
34768;DHT22;21755;43.608;1.236;2022-08-19T11:04:36;23.40;99.90
34768;DHT22;21755;43.608;1.236;2022-08-19T11:07:03;23.30;99.90
34768;DHT22;21755;43.608;1.236;2022-08-19T11:09:30;23.30;99.90
34768;DHT22;21755;43.608;1.236;2022-08-19T11:11:57;23.80;99.90
34768;DHT22;21755;43.608;1.236;2022-08-19T11:14:24;24.20;99.90
34768;DHT22;21755;43.608;1.236;2022-08-19T11:16:52;24.20;99.90
34768;DHT22;21755;43.608;1.236;2022-08-19T11:19:22;24.00;99.90
34768;DHT22;21755;43.608;1.236;2022-08-19T11:21:50;24.40;99.90
34768;DHT22;21755;43.608;1.236;2022-08-19T11:24:19;24.70;99.90
34768;DHT22;21755;43.608;1.236;2022-08-19T11:26:50;24.50;99.90
34768;DHT22;21755;43.608;1.236;2022-08-19T11:29:19;24.90;99.90
34768;DHT22;21755;43.608;1.236;2022-08-19T11:31:47;24.80;99.90
34768;DHT22;21755;43.608;1.236;2022-08-19T11:34:18;25.30;99.90
34768;DHT22;21755;43.608;1.236;2022-08-19T11:36:46;25.10;99.90
34768;DHT22;21755;43.608;1.236;2022-08-19T11:39:16;25.10;99.90
34768;DHT22;21755;43.608;1.236;2022-08-19T11:41:42;24.40;99.90
34768;DHT22;21755;43.608;1.236;2022-08-19T11:44:08;24.40;99.90
34768;DHT22;21755;43.608;1.236;2022-08-19T11:46:36;24.30;99.90
34768;DHT22;21755;43.608;1.236;2022-08-19T11:49:03;24.20;99.90
34768;DHT22;21755;43.608;1.236;2022-08-19T11:51:31;24.20;99.90
34768;DHT22;21755;43.608;1.236;2022-08-19T11:53:58;24.30;99.90
34768;DHT22;21755;43.608;1.236;2022-08-19T11:56:26;24.70;99.90
34768;DHT22;21755;43.608;1.236;2022-08-19T11:58:54;24.80;99.90
34768;DHT22;21755;43.608;1.236;2022-08-19T12:01:22;24.40;99.90
34768;DHT22;21755;43.608;1.236;2022-08-19T12:03:50;24.20;99.90
34768;DHT22;21755;43.608;1.236;2022-08-19T12:06:23;24.00;99.90
34768;DHT22;21755;43.608;1.236;2022-08-19T12:08:52;24.30;99.90
34768;DHT22;21755;43.608;1.236;2022-08-19T12:11:19;24.70;99.90
34768;DHT22;21755;43.608;1.236;2022-08-19T12:13:46;24.60;99.90
34768;DHT22;21755;43.608;1.236;2022-08-19T12:16:18;24.30;99.90
34768;DHT22;21755;43.608;1.236;2022-08-19T12:18:45;24.30;99.90
34768;DHT22;21755;43.608;1.236;2022-08-19T12:21:13;24.20;99.90
34768;DHT22;21755;43.608;1.236;2022-08-19T12:23:41;24.70;99.90
34768;DHT22;21755;43.608;1.236;2022-08-19T12:26:09;25.20;99.90
34768;DHT22;21755;43.608;1.236;2022-08-19T12:28:36;25.20;99.90
34768;DHT22;21755;43.608;1.236;2022-08-19T12:31:03;25.10;99.90
34768;DHT22;21755;43.608;1.236;2022-08-19T12:33:30;25.00;99.90
34768;DHT22;21755;43.608;1.236;2022-08-19T12:36:02;25.20;99.90
34768;DHT22;21755;43.608;1.236;2022-08-19T12:38:30;24.70;99.90
34768;DHT22;21755;43.608;1.236;2022-08-19T12:40:58;24.40;99.90
34768;DHT22;21755;43.608;1.236;2022-08-19T12:43:24;24.60;99.90
34768;DHT22;21755;43.608;1.236;2022-08-19T12:45:51;25.10;99.90
34768;DHT22;21755;43.608;1.236;2022-08-19T12:48:18;25.30;99.90
34768;DHT22;21755;43.608;1.236;2022-08-19T12:50:45;25.70;99.90
34768;DHT22;21755;43.608;1.236;2022-08-19T12:53:13;26.10;99.90
34768;DHT22;21755;43.608;1.236;2022-08-19T12:55:41;25.80;99.90
34768;DHT22;21755;43.608;1.236;2022-08-19T12:58:09;25.40;99.90
34768;DHT22;21755;43.608;1.236;2022-08-19T13:00:36;25.30;99.90
34768;DHT22;21755;43.608;1.236;2022-08-19T13:03:05;25.70;99.90
34768;DHT22;21755;43.608;1.236;2022-08-19T13:05:32;26.00;99.70
34768;DHT22;21755;43.608;1.236;2022-08-19T13:08:01;26.50;99.90
34768;DHT22;21755;43.608;1.236;2022-08-19T13:10:32;26.30;99.90
34768;DHT22;21755;43.608;1.236;2022-08-19T13:13:09;25.90;99.90
34768;DHT22;21755;43.608;1.236;2022-08-19T13:15:39;25.90;99.90
34768;DHT22;21755;43.608;1.236;2022-08-19T13:18:07;25.50;99.90
34768;DHT22;21755;43.608;1.236;2022-08-19T13:20:36;25.50;99.90
34768;DHT22;21755;43.608;1.236;2022-08-19T13:23:06;25.60;99.90
34768;DHT22;21755;43.608;1.236;2022-08-19T13:25:35;26.00;99.90
34768;DHT22;21755;43.608;1.236;2022-08-19T13:28:04;26.30;99.60
34768;DHT22;21755;43.608;1.236;2022-08-19T13:30:32;26.60;99.30
34768;DHT22;21755;43.608;1.236;2022-08-19T13:33:17;26.70;98.80
34768;DHT22;21755;43.608;1.236;2022-08-19T13:35:51;27.20;97.50
34768;DHT22;21755;43.608;1.236;2022-08-19T13:38:21;27.30;96.70
34768;DHT22;21755;43.608;1.236;2022-08-19T13:40:49;27.10;96.60
34768;DHT22;21755;43.608;1.236;2022-08-19T13:43:16;26.80;97.10
34768;DHT22;21755;43.608;1.236;2022-08-19T13:45:43;26.60;97.20
34768;DHT22;21755;43.608;1.236;2022-08-19T13:48:09;26.90;97.20
34768;DHT22;21755;43.608;1.236;2022-08-19T13:50:40;26.90;96.00
34768;DHT22;21755;43.608;1.236;2022-08-19T13:53:07;26.70;96.40
34768;DHT22;21755;43.608;1.236;2022-08-19T13:55:34;26.60;96.70
34768;DHT22;21755;43.608;1.236;2022-08-19T13:58:01;26.30;96.60
34768;DHT22;21755;43.608;1.236;2022-08-19T14:00:31;26.00;97.10
34768;DHT22;21755;43.608;1.236;2022-08-19T14:02:58;25.90;96.70
34768;DHT22;21755;43.608;1.236;2022-08-19T14:05:26;25.90;97.40
34768;DHT22;21755;43.608;1.236;2022-08-19T14:07:52;25.90;97.40
34768;DHT22;21755;43.608;1.236;2022-08-19T14:10:20;25.70;97.60
34768;DHT22;21755;43.608;1.236;2022-08-19T14:12:47;25.70;97.60
34768;DHT22;21755;43.608;1.236;2022-08-19T14:15:14;25.90;98.00
34768;DHT22;21755;43.608;1.236;2022-08-19T14:17:42;26.30;98.30
34768;DHT22;21755;43.608;1.236;2022-08-19T14:20:10;26.50;97.20
34768;DHT22;21755;43.608;1.236;2022-08-19T14:22:40;26.70;97.50
34768;DHT22;21755;43.608;1.236;2022-08-19T14:25:08;26.50;97.60
34768;DHT22;21755;43.608;1.236;2022-08-19T14:27:36;26.40;96.90
34768;DHT22;21755;43.608;1.236;2022-08-19T14:30:06;26.10;96.60
34768;DHT22;21755;43.608;1.236;2022-08-19T14:32:32;26.10;97.30
34768;DHT22;21755;43.608;1.236;2022-08-19T14:34:59;26.00;98.10
34768;DHT22;21755;43.608;1.236;2022-08-19T14:37:24;25.90;97.70
34768;DHT22;21755;43.608;1.236;2022-08-19T14:39:51;26.00;97.30
34768;DHT22;21755;43.608;1.236;2022-08-19T14:42:17;26.60;97.00
34768;DHT22;21755;43.608;1.236;2022-08-19T14:44:43;26.50;96.90
34768;DHT22;21755;43.608;1.236;2022-08-19T14:47:10;26.40;97.60
34768;DHT22;21755;43.608;1.236;2022-08-19T14:49:36;26.30;96.70
34768;DHT22;21755;43.608;1.236;2022-08-19T14:52:03;26.20;96.50
34768;DHT22;21755;43.608;1.236;2022-08-19T14:54:29;25.90;97.00
34768;DHT22;21755;43.608;1.236;2022-08-19T14:56:56;25.80;98.10
34768;DHT22;21755;43.608;1.236;2022-08-19T14:59:23;25.80;97.20
34768;DHT22;21755;43.608;1.236;2022-08-19T15:01:49;25.80;97.40
34768;DHT22;21755;43.608;1.236;2022-08-19T15:04:15;25.80;98.10
34768;DHT22;21755;43.608;1.236;2022-08-19T15:06:44;25.80;97.30
34768;DHT22;21755;43.608;1.236;2022-08-19T15:09:12;25.80;97.30
34768;DHT22;21755;43.608;1.236;2022-08-19T15:11:38;25.70;97.00
34768;DHT22;21755;43.608;1.236;2022-08-19T15:14:04;25.70;97.10
34768;DHT22;21755;43.608;1.236;2022-08-19T15:16:31;25.70;97.30
34768;DHT22;21755;43.608;1.236;2022-08-19T15:18:58;25.70;97.80
34768;DHT22;21755;43.608;1.236;2022-08-19T15:21:26;25.70;97.00
34768;DHT22;21755;43.608;1.236;2022-08-19T15:23:53;25.80;97.50
34768;DHT22;21755;43.608;1.236;2022-08-19T15:26:20;25.80;97.40
34768;DHT22;21755;43.608;1.236;2022-08-19T15:28:46;25.90;96.90
34768;DHT22;21755;43.608;1.236;2022-08-19T15:31:15;25.80;97.20
34768;DHT22;21755;43.608;1.236;2022-08-19T15:33:42;25.70;96.90
34768;DHT22;21755;43.608;1.236;2022-08-19T15:36:09;25.70;97.50
34768;DHT22;21755;43.608;1.236;2022-08-19T15:38:37;25.70;97.80
34768;DHT22;21755;43.608;1.236;2022-08-19T15:41:05;25.60;97.80
34768;DHT22;21755;43.608;1.236;2022-08-19T15:44:01;25.60;97.90
34768;DHT22;21755;43.608;1.236;2022-08-19T15:46:30;25.60;98.20
34768;DHT22;21755;43.608;1.236;2022-08-19T15:48:58;25.60;98.00